sensor_id;sensor_type;location;lat;lon;timestamp;P1;durP1;ratioP1;P2;durP2;ratioP2
58302;SDS011;44109;52.398;7.024;2024-02-26T00:01:05;8.00;;;7.03;;
58302;SDS011;44109;52.398;7.024;2024-02-26T00:03:33;12.90;;;7.75;;
58302;SDS011;44109;52.398;7.024;2024-02-26T00:06:02;9.52;;;7.40;;
58302;SDS011;44109;52.398;7.024;2024-02-26T00:08:29;8.63;;;7.03;;
58302;SDS011;44109;52.398;7.024;2024-02-26T00:10:57;9.57;;;7.32;;
58302;SDS011;44109;52.398;7.024;2024-02-26T00:13:24;10.32;;;7.43;;
58302;SDS011;44109;52.398;7.024;2024-02-26T00:15:52;10.35;;;7.53;;
58302;SDS011;44109;52.398;7.024;2024-02-26T00:18:21;10.70;;;7.45;;
58302;SDS011;44109;52.398;7.024;2024-02-26T00:20:49;11.10;;;7.22;;
58302;SDS011;44109;52.398;7.024;2024-02-26T00:23:17;9.65;;;7.28;;
58302;SDS011;44109;52.398;7.024;2024-02-26T00:25:45;8.88;;;6.72;;
58302;SDS011;44109;52.398;7.024;2024-02-26T00:28:13;9.57;;;7.05;;
58302;SDS011;44109;52.398;7.024;2024-02-26T00:30:41;8.23;;;6.55;;
58302;SDS011;44109;52.398;7.024;2024-02-26T00:33:09;7.65;;;6.60;;
58302;SDS011;44109;52.398;7.024;2024-02-26T00:35:37;9.13;;;6.38;;
58302;SDS011;44109;52.398;7.024;2024-02-26T00:38:05;7.93;;;6.30;;
58302;SDS011;44109;52.398;7.024;2024-02-26T00:40:33;9.57;;;6.93;;
58302;SDS011;44109;52.398;7.024;2024-02-26T00:43:01;9.18;;;6.90;;
58302;SDS011;44109;52.398;7.024;2024-02-26T00:45:28;7.70;;;6.60;;
58302;SDS011;44109;52.398;7.024;2024-02-26T00:47:57;9.43;;;7.25;;
58302;SDS011;44109;52.398;7.024;2024-02-26T00:50:28;10.63;;;7.70;;
58302;SDS011;44109;52.398;7.024;2024-02-26T00:52:57;10.38;;;6.85;;
58302;SDS011;44109;52.398;7.024;2024-02-26T00:55:25;9.27;;;7.22;;
58302;SDS011;44109;52.398;7.024;2024-02-26T00:57:52;11.15;;;6.82;;
58302;SDS011;44109;52.398;7.024;2024-02-26T01:00:20;10.40;;;7.20;;
58302;SDS011;44109;52.398;7.024;2024-02-26T01:02:48;9.90;;;7.20;;
58302;SDS011;44109;52.398;7.024;2024-02-26T01:05:15;12.38;;;8.02;;
58302;SDS011;44109;52.398;7.024;2024-02-26T01:07:43;9.52;;;7.90;;
58302;SDS011;44109;52.398;7.024;2024-02-26T01:10:12;7.57;;;6.40;;
58302;SDS011;44109;52.398;7.024;2024-02-26T01:12:39;7.95;;;6.85;;
58302;SDS011;44109;52.398;7.024;2024-02-26T01:15:07;10.57;;;8.05;;
58302;SDS011;44109;52.398;7.024;2024-02-26T01:17:36;10.43;;;7.40;;
58302;SDS011;44109;52.398;7.024;2024-02-26T01:20:05;11.13;;;7.35;;
58302;SDS011;44109;52.398;7.024;2024-02-26T01:22:34;12.00;;;7.97;;
58302;SDS011;44109;52.398;7.024;2024-02-26T01:25:02;10.20;;;7.53;;
58302;SDS011;44109;52.398;7.024;2024-02-26T01:27:31;8.25;;;6.75;;
58302;SDS011;44109;52.398;7.024;2024-02-26T01:29:59;9.25;;;7.28;;
58302;SDS011;44109;52.398;7.024;2024-02-26T01:32:26;12.35;;;8.15;;
58302;SDS011;44109;52.398;7.024;2024-02-26T01:34:54;10.35;;;7.95;;
58302;SDS011;44109;52.398;7.024;2024-02-26T01:37:22;9.50;;;7.97;;
58302;SDS011;44109;52.398;7.024;2024-02-26T01:39:49;10.48;;;8.68;;
58302;SDS011;44109;52.398;7.024;2024-02-26T01:42:17;11.63;;;9.25;;
58302;SDS011;44109;52.398;7.024;2024-02-26T01:44:46;15.07;;;10.27;;
58302;SDS011;44109;52.398;7.024;2024-02-26T01:47:13;11.23;;;8.60;;
58302;SDS011;44109;52.398;7.024;2024-02-26T01:49:41;11.75;;;9.93;;
58302;SDS011;44109;52.398;7.024;2024-02-26T01:52:09;13.18;;;9.75;;
58302;SDS011;44109;52.398;7.024;2024-02-26T01:54:37;10.50;;;9.15;;
58302;SDS011;44109;52.398;7.024;2024-02-26T01:57:09;13.15;;;10.00;;
58302;SDS011;44109;52.398;7.024;2024-02-26T01:59:38;14.00;;;10.32;;
58302;SDS011;44109;52.398;7.024;2024-02-26T02:02:09;10.68;;;8.15;;
58302;SDS011;44109;52.398;7.024;2024-02-26T02:04:39;11.45;;;9.55;;
58302;SDS011;44109;52.398;7.024;2024-02-26T02:07:07;11.95;;;8.82;;
58302;SDS011;44109;52.398;7.024;2024-02-26T02:09:35;15.00;;;10.93;;
58302;SDS011;44109;52.398;7.024;2024-02-26T02:12:03;11.50;;;9.10;;
58302;SDS011;44109;52.398;7.024;2024-02-26T02:14:33;14.65;;;10.23;;
58302;SDS011;44109;52.398;7.024;2024-02-26T02:17:00;15.07;;;11.52;;
58302;SDS011;44109;52.398;7.024;2024-02-26T02:19:29;12.88;;;9.75;;
58302;SDS011;44109;52.398;7.024;2024-02-26T02:21:58;13.10;;;10.18;;
58302;SDS011;44109;52.398;7.024;2024-02-26T02:24:25;12.85;;;10.32;;
58302;SDS011;44109;52.398;7.024;2024-02-26T02:26:53;10.27;;;8.55;;
58302;SDS011;44109;52.398;7.024;2024-02-26T02:29:21;11.63;;;9.75;;
58302;SDS011;44109;52.398;7.024;2024-02-26T02:31:48;11.60;;;8.90;;
58302;SDS011;44109;52.398;7.024;2024-02-26T02:34:17;13.90;;;9.88;;
58302;SDS011;44109;52.398;7.024;2024-02-26T02:36:48;11.65;;;9.32;;
58302;SDS011;44109;52.398;7.024;2024-02-26T02:39:18;11.43;;;8.93;;
58302;SDS011;44109;52.398;7.024;2024-02-26T02:41:45;11.05;;;8.25;;
58302;SDS011;44109;52.398;7.024;2024-02-26T02:44:13;13.30;;;10.30;;
58302;SDS011;44109;52.398;7.024;2024-02-26T02:46:41;14.20;;;9.35;;
58302;SDS011;44109;52.398;7.024;2024-02-26T02:49:08;12.82;;;9.35;;
58302;SDS011;44109;52.398;7.024;2024-02-26T02:51:36;11.13;;;9.30;;
58302;SDS011;44109;52.398;7.024;2024-02-26T02:54:04;13.13;;;10.23;;
58302;SDS011;44109;52.398;7.024;2024-02-26T02:56:33;12.23;;;9.45;;
58302;SDS011;44109;52.398;7.024;2024-02-26T02:59:01;12.35;;;9.88;;
58302;SDS011;44109;52.398;7.024;2024-02-26T03:01:29;12.00;;;9.02;;
58302;SDS011;44109;52.398;7.024;2024-02-26T03:03:57;11.93;;;8.38;;
58302;SDS011;44109;52.398;7.024;2024-02-26T03:06:24;11.55;;;8.75;;
58302;SDS011;44109;52.398;7.024;2024-02-26T03:08:54;9.98;;;7.93;;
58302;SDS011;44109;52.398;7.024;2024-02-26T03:11:21;12.63;;;9.18;;
58302;SDS011;44109;52.398;7.024;2024-02-26T03:13:50;13.63;;;8.95;;
58302;SDS011;44109;52.398;7.024;2024-02-26T03:16:18;11.88;;;7.93;;
58302;SDS011;44109;52.398;7.024;2024-02-26T03:18:46;12.35;;;8.55;;
58302;SDS011;44109;52.398;7.024;2024-02-26T03:21:13;11.70;;;8.93;;
58302;SDS011;44109;52.398;7.024;2024-02-26T03:23:41;10.55;;;7.90;;
58302;SDS011;44109;52.398;7.024;2024-02-26T03:26:08;9.80;;;8.30;;
58302;SDS011;44109;52.398;7.024;2024-02-26T03:28:39;10.07;;;8.18;;
58302;SDS011;44109;52.398;7.024;2024-02-26T03:31:08;8.80;;;7.55;;
58302;SDS011;44109;52.398;7.024;2024-02-26T03:33:36;8.98;;;7.00;;
58302;SDS011;44109;52.398;7.024;2024-02-26T03:36:04;8.45;;;6.95;;
58302;SDS011;44109;52.398;7.024;2024-02-26T03:38:33;9.80;;;7.13;;
58302;SDS011;44109;52.398;7.024;2024-02-26T03:41:00;10.18;;;6.78;;
58302;SDS011;44109;52.398;7.024;2024-02-26T03:43:27;10.13;;;7.88;;
58302;SDS011;44109;52.398;7.024;2024-02-26T03:45:55;10.00;;;6.68;;
58302;SDS011;44109;52.398;7.024;2024-02-26T03:48:23;7.55;;;6.40;;
58302;SDS011;44109;52.398;7.024;2024-02-26T03:50:51;8.75;;;6.78;;
58302;SDS011;44109;52.398;7.024;2024-02-26T03:53:19;9.32;;;7.43;;
58302;SDS011;44109;52.398;7.024;2024-02-26T03:55:46;8.70;;;6.47;;
58302;SDS011;44109;52.398;7.024;2024-02-26T03:58:15;8.57;;;6.45;;
58302;SDS011;44109;52.398;7.024;2024-02-26T04:00:42;9.57;;;6.22;;
58302;SDS011;44109;52.398;7.024;2024-02-26T04:03:10;7.20;;;5.68;;
58302;SDS011;44109;52.398;7.024;2024-02-26T04:05:39;10.00;;;7.30;;
58302;SDS011;44109;52.398;7.024;2024-02-26T04:08:06;8.52;;;6.60;;
58302;SDS011;44109;52.398;7.024;2024-02-26T04:10:34;8.05;;;7.07;;
58302;SDS011;44109;52.398;7.024;2024-02-26T04:13:04;7.18;;;6.20;;
58302;SDS011;44109;52.398;7.024;2024-02-26T04:15:31;8.45;;;6.40;;
58302;SDS011;44109;52.398;7.024;2024-02-26T04:17:59;7.82;;;5.53;;
58302;SDS011;44109;52.398;7.024;2024-02-26T04:20:27;9.60;;;7.03;;
58302;SDS011;44109;52.398;7.024;2024-02-26T04:22:56;7.47;;;6.22;;
58302;SDS011;44109;52.398;7.024;2024-02-26T04:25:23;8.68;;;5.53;;
58302;SDS011;44109;52.398;7.024;2024-02-26T04:27:51;8.18;;;6.53;;
58302;SDS011;44109;52.398;7.024;2024-02-26T04:30:18;8.45;;;5.82;;
58302;SDS011;44109;52.398;7.024;2024-02-26T04:32:46;7.25;;;6.10;;
58302;SDS011;44109;52.398;7.024;2024-02-26T04:35:13;7.85;;;6.75;;
58302;SDS011;44109;52.398;7.024;2024-02-26T04:37:41;7.85;;;6.47;;
58302;SDS011;44109;52.398;7.024;2024-02-26T04:40:10;11.80;;;6.65;;
58302;SDS011;44109;52.398;7.024;2024-02-26T04:42:39;7.18;;;5.75;;
58302;SDS011;44109;52.398;7.024;2024-02-26T04:45:06;7.32;;;5.80;;
58302;SDS011;44109;52.398;7.024;2024-02-26T04:47:35;7.88;;;6.10;;
58302;SDS011;44109;52.398;7.024;2024-02-26T04:50:03;7.85;;;6.25;;
58302;SDS011;44109;52.398;7.024;2024-02-26T04:52:31;7.72;;;6.60;;
58302;SDS011;44109;52.398;7.024;2024-02-26T04:54:59;9.18;;;6.90;;
58302;SDS011;44109;52.398;7.024;2024-02-26T04:57:28;7.25;;;5.80;;
58302;SDS011;44109;52.398;7.024;2024-02-26T04:59:55;9.30;;;6.50;;
58302;SDS011;44109;52.398;7.024;2024-02-26T05:02:23;9.30;;;6.70;;
58302;SDS011;44109;52.398;7.024;2024-02-26T05:04:51;12.55;;;7.32;;
58302;SDS011;44109;52.398;7.024;2024-02-26T05:07:18;9.52;;;7.15;;
58302;SDS011;44109;52.398;7.024;2024-02-26T05:09:46;9.85;;;7.25;;
58302;SDS011;44109;52.398;7.024;2024-02-26T05:12:15;8.65;;;6.30;;
58302;SDS011;44109;52.398;7.024;2024-02-26T05:14:44;9.57;;;7.00;;
58302;SDS011;44109;52.398;7.024;2024-02-26T05:17:12;7.97;;;6.63;;
58302;SDS011;44109;52.398;7.024;2024-02-26T05:19:39;7.97;;;6.35;;
58302;SDS011;44109;52.398;7.024;2024-02-26T05:22:07;8.75;;;6.45;;
58302;SDS011;44109;52.398;7.024;2024-02-26T05:24:37;9.60;;;7.82;;
58302;SDS011;44109;52.398;7.024;2024-02-26T05:27:04;9.73;;;7.18;;
58302;SDS011;44109;52.398;7.024;2024-02-26T05:29:32;11.23;;;6.82;;
58302;SDS011;44109;52.398;7.024;2024-02-26T05:32:01;8.35;;;7.18;;
58302;SDS011;44109;52.398;7.024;2024-02-26T05:34:28;9.00;;;7.10;;
58302;SDS011;44109;52.398;7.024;2024-02-26T05:36:56;10.73;;;7.95;;
58302;SDS011;44109;52.398;7.024;2024-02-26T05:39:24;10.25;;;8.85;;
58302;SDS011;44109;52.398;7.024;2024-02-26T05:41:52;10.35;;;6.72;;
58302;SDS011;44109;52.398;7.024;2024-02-26T05:44:20;10.00;;;7.57;;
58302;SDS011;44109;52.398;7.024;2024-02-26T05:46:49;9.88;;;8.30;;
58302;SDS011;44109;52.398;7.024;2024-02-26T05:49:18;13.68;;;9.32;;
58302;SDS011;44109;52.398;7.024;2024-02-26T05:51:47;12.90;;;8.88;;
58302;SDS011;44109;52.398;7.024;2024-02-26T05:54:15;9.23;;;7.68;;
58302;SDS011;44109;52.398;7.024;2024-02-26T05:56:42;11.10;;;8.65;;
58302;SDS011;44109;52.398;7.024;2024-02-26T05:59:10;13.38;;;9.23;;
58302;SDS011;44109;52.398;7.024;2024-02-26T06:01:37;11.95;;;9.82;;
58302;SDS011;44109;52.398;7.024;2024-02-26T06:04:05;15.10;;;10.57;;
58302;SDS011;44109;52.398;7.024;2024-02-26T06:06:34;12.68;;;10.35;;
58302;SDS011;44109;52.398;7.024;2024-02-26T06:09:01;13.60;;;10.23;;
58302;SDS011;44109;52.398;7.024;2024-02-26T06:11:31;15.15;;;12.40;;
58302;SDS011;44109;52.398;7.024;2024-02-26T06:13:58;13.82;;;10.68;;
58302;SDS011;44109;52.398;7.024;2024-02-26T06:16:26;13.95;;;10.65;;
58302;SDS011;44109;52.398;7.024;2024-02-26T06:18:53;14.63;;;11.40;;
58302;SDS011;44109;52.398;7.024;2024-02-26T06:21:22;17.52;;;12.45;;
58302;SDS011;44109;52.398;7.024;2024-02-26T06:23:51;17.10;;;10.93;;
58302;SDS011;44109;52.398;7.024;2024-02-26T06:26:18;19.77;;;13.68;;
58302;SDS011;44109;52.398;7.024;2024-02-26T06:28:46;15.82;;;12.50;;
58302;SDS011;44109;52.398;7.024;2024-02-26T06:31:14;18.42;;;12.98;;
58302;SDS011;44109;52.398;7.024;2024-02-26T06:33:41;16.70;;;12.35;;
58302;SDS011;44109;52.398;7.024;2024-02-26T06:36:09;16.90;;;12.10;;
58302;SDS011;44109;52.398;7.024;2024-02-26T06:38:37;14.30;;;11.82;;
58302;SDS011;44109;52.398;7.024;2024-02-26T06:41:06;15.70;;;11.02;;
58302;SDS011;44109;52.398;7.024;2024-02-26T06:43:33;15.45;;;12.15;;
58302;SDS011;44109;52.398;7.024;2024-02-26T06:46:01;15.65;;;12.02;;
58302;SDS011;44109;52.398;7.024;2024-02-26T06:48:28;15.18;;;11.57;;
58302;SDS011;44109;52.398;7.024;2024-02-26T06:50:56;16.73;;;12.32;;
58302;SDS011;44109;52.398;7.024;2024-02-26T06:53:24;16.20;;;12.13;;
58302;SDS011;44109;52.398;7.024;2024-02-26T06:55:51;15.27;;;12.23;;
58302;SDS011;44109;52.398;7.024;2024-02-26T06:58:20;17.52;;;13.27;;
58302;SDS011;44109;52.398;7.024;2024-02-26T07:00:48;18.27;;;13.25;;
58302;SDS011;44109;52.398;7.024;2024-02-26T07:03:15;17.35;;;13.43;;
58302;SDS011;44109;52.398;7.024;2024-02-26T07:05:43;17.67;;;12.90;;
58302;SDS011;44109;52.398;7.024;2024-02-26T07:08:12;17.77;;;13.98;;
58302;SDS011;44109;52.398;7.024;2024-02-26T07:10:39;18.20;;;13.50;;
58302;SDS011;44109;52.398;7.024;2024-02-26T07:13:07;17.20;;;13.00;;
58302;SDS011;44109;52.398;7.024;2024-02-26T07:15:36;19.15;;;13.52;;
58302;SDS011;44109;52.398;7.024;2024-02-26T07:18:04;19.25;;;14.65;;
58302;SDS011;44109;52.398;7.024;2024-02-26T07:20:32;19.45;;;13.38;;
58302;SDS011;44109;52.398;7.024;2024-02-26T07:23:00;20.80;;;15.82;;
58302;SDS011;44109;52.398;7.024;2024-02-26T07:25:27;16.80;;;11.88;;
58302;SDS011;44109;52.398;7.024;2024-02-26T07:27:55;17.48;;;12.65;;
58302;SDS011;44109;52.398;7.024;2024-02-26T07:30:22;17.38;;;12.60;;
58302;SDS011;44109;52.398;7.024;2024-02-26T07:32:52;14.90;;;10.73;;
58302;SDS011;44109;52.398;7.024;2024-02-26T07:35:20;16.85;;;12.68;;
58302;SDS011;44109;52.398;7.024;2024-02-26T07:37:47;18.77;;;13.38;;
58302;SDS011;44109;52.398;7.024;2024-02-26T07:40:16;14.98;;;11.10;;
58302;SDS011;44109;52.398;7.024;2024-02-26T07:42:44;17.73;;;11.95;;
58302;SDS011;44109;52.398;7.024;2024-02-26T07:45:12;17.77;;;12.50;;
58302;SDS011;44109;52.398;7.024;2024-02-26T07:47:41;17.40;;;10.80;;
58302;SDS011;44109;52.398;7.024;2024-02-26T07:50:10;20.25;;;12.48;;
58302;SDS011;44109;52.398;7.024;2024-02-26T07:52:38;15.95;;;11.43;;
58302;SDS011;44109;52.398;7.024;2024-02-26T07:55:07;17.02;;;11.45;;
58302;SDS011;44109;52.398;7.024;2024-02-26T07:57:35;16.70;;;11.05;;
58302;SDS011;44109;52.398;7.024;2024-02-26T08:00:03;19.98;;;11.88;;
58302;SDS011;44109;52.398;7.024;2024-02-26T08:02:33;14.65;;;10.85;;
58302;SDS011;44109;52.398;7.024;2024-02-26T08:05:01;15.18;;;12.15;;
58302;SDS011;44109;52.398;7.024;2024-02-26T08:07:29;17.40;;;12.02;;
58302;SDS011;44109;52.398;7.024;2024-02-26T08:09:57;16.38;;;10.50;;
58302;SDS011;44109;52.398;7.024;2024-02-26T08:12:25;18.10;;;13.55;;
58302;SDS011;44109;52.398;7.024;2024-02-26T08:14:52;17.38;;;12.43;;
58302;SDS011;44109;52.398;7.024;2024-02-26T08:17:20;16.67;;;12.02;;
58302;SDS011;44109;52.398;7.024;2024-02-26T08:19:48;18.20;;;12.93;;
58302;SDS011;44109;52.398;7.024;2024-02-26T08:22:15;14.63;;;10.15;;
58302;SDS011;44109;52.398;7.024;2024-02-26T08:24:45;14.93;;;10.73;;
58302;SDS011;44109;52.398;7.024;2024-02-26T08:27:12;18.77;;;11.80;;
58302;SDS011;44109;52.398;7.024;2024-02-26T08:29:40;16.55;;;11.38;;
58302;SDS011;44109;52.398;7.024;2024-02-26T08:32:08;15.68;;;10.20;;
58302;SDS011;44109;52.398;7.024;2024-02-26T08:34:35;18.85;;;12.25;;
58302;SDS011;44109;52.398;7.024;2024-02-26T08:37:03;18.42;;;12.73;;
58302;SDS011;44109;52.398;7.024;2024-02-26T08:39:32;16.75;;;12.25;;
58302;SDS011;44109;52.398;7.024;2024-02-26T08:42:01;21.60;;;14.30;;
58302;SDS011;44109;52.398;7.024;2024-02-26T08:44:29;18.50;;;13.02;;
58302;SDS011;44109;52.398;7.024;2024-02-26T08:46:57;19.10;;;12.40;;
58302;SDS011;44109;52.398;7.024;2024-02-26T08:49:24;18.50;;;12.45;;
58302;SDS011;44109;52.398;7.024;2024-02-26T08:51:52;19.90;;;13.45;;
58302;SDS011;44109;52.398;7.024;2024-02-26T08:54:19;21.00;;;13.23;;
58302;SDS011;44109;52.398;7.024;2024-02-26T08:56:47;21.33;;;13.48;;
58302;SDS011;44109;52.398;7.024;2024-02-26T08:59:16;24.33;;;16.45;;
58302;SDS011;44109;52.398;7.024;2024-02-26T09:01:48;24.45;;;14.85;;
58302;SDS011;44109;52.398;7.024;2024-02-26T09:04:15;21.63;;;14.48;;
58302;SDS011;44109;52.398;7.024;2024-02-26T09:06:43;22.52;;;14.90;;
58302;SDS011;44109;52.398;7.024;2024-02-26T09:09:10;25.42;;;17.45;;
58302;SDS011;44109;52.398;7.024;2024-02-26T09:11:38;30.85;;;19.85;;
58302;SDS011;44109;52.398;7.024;2024-02-26T09:14:06;30.23;;;18.45;;
58302;SDS011;44109;52.398;7.024;2024-02-26T09:16:35;28.80;;;17.23;;
58302;SDS011;44109;52.398;7.024;2024-02-26T09:19:02;24.58;;;15.82;;
58302;SDS011;44109;52.398;7.024;2024-02-26T09:21:30;29.00;;;18.95;;
58302;SDS011;44109;52.398;7.024;2024-02-26T09:23:57;33.53;;;21.92;;
58302;SDS011;44109;52.398;7.024;2024-02-26T09:26:25;26.38;;;17.48;;
58302;SDS011;44109;52.398;7.024;2024-02-26T09:28:52;27.67;;;17.35;;
58302;SDS011;44109;52.398;7.024;2024-02-26T09:31:20;28.85;;;18.48;;
58302;SDS011;44109;52.398;7.024;2024-02-26T09:33:49;29.48;;;18.08;;
58302;SDS011;44109;52.398;7.024;2024-02-26T09:36:16;33.85;;;23.08;;
58302;SDS011;44109;52.398;7.024;2024-02-26T09:38:44;31.55;;;20.17;;
58302;SDS011;44109;52.398;7.024;2024-02-26T09:41:13;31.88;;;21.63;;
58302;SDS011;44109;52.398;7.024;2024-02-26T09:43:43;33.05;;;21.90;;
58302;SDS011;44109;52.398;7.024;2024-02-26T09:46:13;35.17;;;21.85;;
58302;SDS011;44109;52.398;7.024;2024-02-26T09:48:43;34.50;;;21.77;;
58302;SDS011;44109;52.398;7.024;2024-02-26T09:51:15;28.95;;;18.77;;
58302;SDS011;44109;52.398;7.024;2024-02-26T09:53:46;33.22;;;21.80;;
58302;SDS011;44109;52.398;7.024;2024-02-26T09:56:18;33.53;;;20.60;;
58302;SDS011;44109;52.398;7.024;2024-02-26T09:58:46;30.35;;;19.52;;
58302;SDS011;44109;52.398;7.024;2024-02-26T10:01:19;29.53;;;19.47;;
58302;SDS011;44109;52.398;7.024;2024-02-26T10:03:52;28.63;;;18.90;;
58302;SDS011;44109;52.398;7.024;2024-02-26T10:06:25;26.25;;;16.83;;
58302;SDS011;44109;52.398;7.024;2024-02-26T10:08:54;29.00;;;18.55;;
58302;SDS011;44109;52.398;7.024;2024-02-26T10:11:24;27.25;;;18.60;;
58302;SDS011;44109;52.398;7.024;2024-02-26T10:13:53;25.92;;;16.67;;
58302;SDS011;44109;52.398;7.024;2024-02-26T10:16:21;22.40;;;15.20;;
58302;SDS011;44109;52.398;7.024;2024-02-26T10:18:49;20.20;;;14.60;;
58302;SDS011;44109;52.398;7.024;2024-02-26T10:21:20;21.77;;;13.43;;
58302;SDS011;44109;52.398;7.024;2024-02-26T10:23:49;21.10;;;13.52;;
58302;SDS011;44109;52.398;7.024;2024-02-26T10:26:17;19.55;;;13.43;;
58302;SDS011;44109;52.398;7.024;2024-02-26T10:28:46;20.30;;;12.77;;
58302;SDS011;44109;52.398;7.024;2024-02-26T10:31:14;18.92;;;13.93;;
58302;SDS011;44109;52.398;7.024;2024-02-26T10:33:42;20.10;;;12.40;;
58302;SDS011;44109;52.398;7.024;2024-02-26T10:36:10;19.35;;;12.57;;
58302;SDS011;44109;52.398;7.024;2024-02-26T10:38:39;18.88;;;11.23;;
58302;SDS011;44109;52.398;7.024;2024-02-26T10:41:08;16.88;;;12.25;;
58302;SDS011;44109;52.398;7.024;2024-02-26T10:43:41;15.95;;;10.35;;
58302;SDS011;44109;52.398;7.024;2024-02-26T10:46:09;19.40;;;11.45;;
58302;SDS011;44109;52.398;7.024;2024-02-26T10:48:37;17.90;;;12.45;;
58302;SDS011;44109;52.398;7.024;2024-02-26T10:51:05;15.80;;;9.68;;
58302;SDS011;44109;52.398;7.024;2024-02-26T10:53:38;14.95;;;10.05;;
58302;SDS011;44109;52.398;7.024;2024-02-26T10:58:45;14.70;;;9.85;;
58302;SDS011;44109;52.398;7.024;2024-02-26T11:01:13;17.13;;;10.25;;
58302;SDS011;44109;52.398;7.024;2024-02-26T11:03:42;16.83;;;10.13;;
58302;SDS011;44109;52.398;7.024;2024-02-26T11:06:10;15.43;;;9.80;;
58302;SDS011;44109;52.398;7.024;2024-02-26T11:08:39;17.40;;;11.35;;
58302;SDS011;44109;52.398;7.024;2024-02-26T11:11:08;16.55;;;10.95;;
58302;SDS011;44109;52.398;7.024;2024-02-26T11:13:40;15.38;;;9.73;;
58302;SDS011;44109;52.398;7.024;2024-02-26T11:16:15;13.98;;;9.65;;
58302;SDS011;44109;52.398;7.024;2024-02-26T11:18:46;15.65;;;9.73;;
58302;SDS011;44109;52.398;7.024;2024-02-26T11:21:15;16.67;;;10.88;;
58302;SDS011;44109;52.398;7.024;2024-02-26T11:23:44;15.10;;;9.38;;
58302;SDS011;44109;52.398;7.024;2024-02-26T11:26:13;16.10;;;9.55;;
58302;SDS011;44109;52.398;7.024;2024-02-26T11:28:45;14.65;;;10.20;;
58302;SDS011;44109;52.398;7.024;2024-02-26T11:31:15;16.73;;;10.48;;
58302;SDS011;44109;52.398;7.024;2024-02-26T11:33:44;12.15;;;9.52;;
58302;SDS011;44109;52.398;7.024;2024-02-26T11:36:11;15.02;;;10.27;;
58302;SDS011;44109;52.398;7.024;2024-02-26T11:38:40;16.80;;;10.75;;
58302;SDS011;44109;52.398;7.024;2024-02-26T11:41:07;12.45;;;8.43;;
58302;SDS011;44109;52.398;7.024;2024-02-26T11:43:52;14.90;;;10.00;;
58302;SDS011;44109;52.398;7.024;2024-02-26T11:46:27;14.13;;;9.40;;
58302;SDS011;44109;52.398;7.024;2024-02-26T11:49:00;12.02;;;9.18;;
58302;SDS011;44109;52.398;7.024;2024-02-26T11:51:32;14.45;;;8.98;;
58302;SDS011;44109;52.398;7.024;2024-02-26T11:54:01;15.73;;;10.52;;
58302;SDS011;44109;52.398;7.024;2024-02-26T11:56:29;15.80;;;10.00;;
58302;SDS011;44109;52.398;7.024;2024-02-26T11:59:03;15.20;;;10.05;;
58302;SDS011;44109;52.398;7.024;2024-02-26T12:01:37;15.27;;;10.77;;
58302;SDS011;44109;52.398;7.024;2024-02-26T12:04:05;13.02;;;9.27;;
58302;SDS011;44109;52.398;7.024;2024-02-26T12:06:44;13.30;;;9.25;;
58302;SDS011;44109;52.398;7.024;2024-02-26T12:11:59;15.25;;;10.02;;
58302;SDS011;44109;52.398;7.024;2024-02-26T12:14:31;13.95;;;9.27;;
58302;SDS011;44109;52.398;7.024;2024-02-26T12:17:02;14.85;;;10.02;;
58302;SDS011;44109;52.398;7.024;2024-02-26T12:19:33;14.38;;;9.60;;
58302;SDS011;44109;52.398;7.024;2024-02-26T12:22:02;12.82;;;9.43;;
58302;SDS011;44109;52.398;7.024;2024-02-26T12:24:33;14.18;;;9.10;;
58302;SDS011;44109;52.398;7.024;2024-02-26T12:27:00;14.38;;;8.57;;
58302;SDS011;44109;52.398;7.024;2024-02-26T12:29:30;16.40;;;9.18;;
58302;SDS011;44109;52.398;7.024;2024-02-26T12:31:58;12.93;;;8.85;;
58302;SDS011;44109;52.398;7.024;2024-02-26T12:34:25;13.18;;;8.68;;
58302;SDS011;44109;52.398;7.024;2024-02-26T12:36:54;11.27;;;8.23;;
58302;SDS011;44109;52.398;7.024;2024-02-26T12:39:22;12.50;;;9.20;;
58302;SDS011;44109;52.398;7.024;2024-02-26T12:41:50;12.00;;;8.57;;
58302;SDS011;44109;52.398;7.024;2024-02-26T12:44:20;12.00;;;9.25;;
58302;SDS011;44109;52.398;7.024;2024-02-26T12:47:00;12.00;;;8.07;;
58302;SDS011;44109;52.398;7.024;2024-02-26T12:49:29;13.32;;;8.32;;
58302;SDS011;44109;52.398;7.024;2024-02-26T12:51:57;13.00;;;8.48;;
58302;SDS011;44109;52.398;7.024;2024-02-26T12:54:28;13.50;;;8.43;;
58302;SDS011;44109;52.398;7.024;2024-02-26T12:56:57;12.55;;;8.43;;
58302;SDS011;44109;52.398;7.024;2024-02-26T12:59:26;12.50;;;8.55;;
58302;SDS011;44109;52.398;7.024;2024-02-26T13:01:54;11.00;;;7.35;;
58302;SDS011;44109;52.398;7.024;2024-02-26T13:04:25;11.70;;;8.45;;
58302;SDS011;44109;52.398;7.024;2024-02-26T13:06:56;12.27;;;8.25;;
58302;SDS011;44109;52.398;7.024;2024-02-26T13:09:26;10.80;;;6.88;;
58302;SDS011;44109;52.398;7.024;2024-02-26T13:11:55;12.65;;;8.82;;
58302;SDS011;44109;52.398;7.024;2024-02-26T13:14:23;10.48;;;7.53;;
58302;SDS011;44109;52.398;7.024;2024-02-26T13:16:56;13.65;;;8.98;;
58302;SDS011;44109;52.398;7.024;2024-02-26T13:19:26;10.48;;;7.65;;
58302;SDS011;44109;52.398;7.024;2024-02-26T13:21:54;9.88;;;8.18;;
58302;SDS011;44109;52.398;7.024;2024-02-26T13:24:22;10.38;;;7.68;;
58302;SDS011;44109;52.398;7.024;2024-02-26T13:26:53;12.77;;;7.57;;
58302;SDS011;44109;52.398;7.024;2024-02-26T13:29:21;12.60;;;8.35;;
58302;SDS011;44109;52.398;7.024;2024-02-26T13:31:53;10.52;;;7.32;;
58302;SDS011;44109;52.398;7.024;2024-02-26T13:34:23;14.45;;;7.80;;
58302;SDS011;44109;52.398;7.024;2024-02-26T13:36:54;12.05;;;7.85;;
58302;SDS011;44109;52.398;7.024;2024-02-26T13:39:22;11.48;;;7.35;;
58302;SDS011;44109;52.398;7.024;2024-02-26T13:41:50;10.07;;;7.22;;
58302;SDS011;44109;52.398;7.024;2024-02-26T13:44:19;10.52;;;7.50;;
58302;SDS011;44109;52.398;7.024;2024-02-26T13:46:47;9.52;;;6.75;;
58302;SDS011;44109;52.398;7.024;2024-02-26T13:49:16;10.80;;;8.10;;
58302;SDS011;44109;52.398;7.024;2024-02-26T13:51:43;13.25;;;7.88;;
58302;SDS011;44109;52.398;7.024;2024-02-26T13:54:12;11.25;;;7.70;;
58302;SDS011;44109;52.398;7.024;2024-02-26T13:56:40;11.13;;;7.43;;
58302;SDS011;44109;52.398;7.024;2024-02-26T13:59:08;11.77;;;8.65;;
58302;SDS011;44109;52.398;7.024;2024-02-26T14:01:35;10.07;;;7.28;;
58302;SDS011;44109;52.398;7.024;2024-02-26T14:04:03;11.55;;;8.35;;
58302;SDS011;44109;52.398;7.024;2024-02-26T14:06:31;10.98;;;7.55;;
58302;SDS011;44109;52.398;7.024;2024-02-26T14:08:59;11.15;;;8.30;;
58302;SDS011;44109;52.398;7.024;2024-02-26T14:11:27;11.05;;;8.02;;
58302;SDS011;44109;52.398;7.024;2024-02-26T14:13:55;10.73;;;7.57;;
58302;SDS011;44109;52.398;7.024;2024-02-26T14:16:23;10.18;;;7.50;;
58302;SDS011;44109;52.398;7.024;2024-02-26T14:18:50;9.60;;;7.13;;
58302;SDS011;44109;52.398;7.024;2024-02-26T14:21:18;12.15;;;8.18;;
58302;SDS011;44109;52.398;7.024;2024-02-26T14:23:47;13.38;;;8.48;;
58302;SDS011;44109;52.398;7.024;2024-02-26T14:26:15;11.02;;;8.00;;
58302;SDS011;44109;52.398;7.024;2024-02-26T14:28:44;11.30;;;8.23;;
58302;SDS011;44109;52.398;7.024;2024-02-26T14:31:12;10.68;;;7.47;;
58302;SDS011;44109;52.398;7.024;2024-02-26T14:33:40;10.95;;;7.40;;
58302;SDS011;44109;52.398;7.024;2024-02-26T14:36:07;11.48;;;7.20;;
58302;SDS011;44109;52.398;7.024;2024-02-26T14:38:35;11.23;;;8.02;;
58302;SDS011;44109;52.398;7.024;2024-02-26T14:41:03;10.85;;;8.05;;
58302;SDS011;44109;52.398;7.024;2024-02-26T14:43:31;11.02;;;8.15;;